Rechercher aéroport 
image banner adimage banner adimage banner ad
image banner ad

KRIV - March Arb

Situé à Riverside, United States

ICAO - RIV, IATA -

Données fournies par Airmate  

Information générale

Coordonnées: N33°52'55" W117°15'32"
Élévation : 1536 feet MSL.
Variation magnétique : 14° East
Voir autres Aéroports à California

Données opérationnelles

Special qualification required
Heure actuelle UTC:
Heure actuelle locale:
Météo
METAR: KRIV 251556Z 00000KT 10SM SCT120 SCT180 BKN250 23/16 A3001 RMK AO2A SLP150 T02340162
TAF: TAF KRIV 251200Z 2512/2618 00000KT 9999 SCT150 SCT200 BKN250 QNH2996INS BECMG 2518/2519 31009KT 9999 SCT120 BKN150 BKN220 QNH2988INS TS OMTNS SE TEMPO 2521/2602 32012G18KT BECMG 2605/2606 VRB04KT 9999 VCSH BKN100 BKN120 OVC200 QNH2994INS BECMG 2607/2608 VRB06KT 9999 -SHRA BKN080 BKN100 OVC180 QNH2992INS TEMPO 2608/2612 VRB12G18KT VCTS BKN080CB OVC100 TX31/2522Z TN22/2513Z
Voir NOTAMs / SUP AIP / TFR affectant cet aéroport [VIEW]
Fréquences de communication: [VIEW]

Pistes:

Identifiant RWYQFULongueur (ft)Largeur (ft)SurfaceLDA (ft)
12135°3061100ASPH
30315°3061100ASPH
14149°13302200CONC
32329°13302200CONC

Coordonnées de l'aéroport

Adresse: Riverside United States

Vue satellite de KRIV